sensor_id;sensor_type;location;lat;lon;timestamp;P1;durP1;ratioP1;P2;durP2;ratioP2
54683;SDS011;40582;53.100;6.686;2022-12-07T00:01:05;17.17;;;3.53;;
54683;SDS011;40582;53.100;6.686;2022-12-07T00:03:36;13.60;;;3.40;;
54683;SDS011;40582;53.100;6.686;2022-12-07T00:06:03;17.88;;;4.10;;
54683;SDS011;40582;53.100;6.686;2022-12-07T00:08:29;23.80;;;3.58;;
54683;SDS011;40582;53.100;6.686;2022-12-07T00:11:00;15.07;;;3.65;;
54683;SDS011;40582;53.100;6.686;2022-12-07T00:13:27;8.82;;;2.58;;
54683;SDS011;40582;53.100;6.686;2022-12-07T00:15:52;14.60;;;3.08;;
54683;SDS011;40582;53.100;6.686;2022-12-07T00:18:18;15.90;;;2.63;;
54683;SDS011;40582;53.100;6.686;2022-12-07T00:20:44;14.98;;;3.08;;
54683;SDS011;40582;53.100;6.686;2022-12-07T00:23:09;11.63;;;2.67;;
54683;SDS011;40582;53.100;6.686;2022-12-07T00:25:35;14.98;;;2.83;;
54683;SDS011;40582;53.100;6.686;2022-12-07T00:28:01;9.85;;;2.25;;
54683;SDS011;40582;53.100;6.686;2022-12-07T00:30:26;11.80;;;2.50;;
54683;SDS011;40582;53.100;6.686;2022-12-07T00:32:52;13.98;;;2.40;;
54683;SDS011;40582;53.100;6.686;2022-12-07T00:35:17;15.23;;;2.30;;
54683;SDS011;40582;53.100;6.686;2022-12-07T00:37:43;7.72;;;1.95;;
54683;SDS011;40582;53.100;6.686;2022-12-07T00:40:09;10.77;;;2.40;;
54683;SDS011;40582;53.100;6.686;2022-12-07T00:42:35;13.60;;;2.20;;
54683;SDS011;40582;53.100;6.686;2022-12-07T00:45:00;12.68;;;2.08;;
54683;SDS011;40582;53.100;6.686;2022-12-07T00:47:26;15.68;;;2.30;;
54683;SDS011;40582;53.100;6.686;2022-12-07T00:49:52;9.50;;;1.88;;
54683;SDS011;40582;53.100;6.686;2022-12-07T00:52:17;11.45;;;2.38;;
54683;SDS011;40582;53.100;6.686;2022-12-07T00:54:43;12.23;;;2.28;;
54683;SDS011;40582;53.100;6.686;2022-12-07T00:57:09;10.48;;;2.53;;
54683;SDS011;40582;53.100;6.686;2022-12-07T00:59:34;10.38;;;2.30;;
54683;SDS011;40582;53.100;6.686;2022-12-07T01:02:00;14.15;;;2.38;;
54683;SDS011;40582;53.100;6.686;2022-12-07T01:04:26;16.63;;;2.47;;
54683;SDS011;40582;53.100;6.686;2022-12-07T01:06:51;9.48;;;2.30;;
54683;SDS011;40582;53.100;6.686;2022-12-07T01:09:17;12.23;;;2.35;;
54683;SDS011;40582;53.100;6.686;2022-12-07T01:11:42;11.48;;;2.25;;
54683;SDS011;40582;53.100;6.686;2022-12-07T01:14:08;15.88;;;2.70;;
54683;SDS011;40582;53.100;6.686;2022-12-07T01:16:34;13.82;;;2.35;;
54683;SDS011;40582;53.100;6.686;2022-12-07T01:19:00;12.85;;;2.30;;
54683;SDS011;40582;53.100;6.686;2022-12-07T01:21:28;11.77;;;2.60;;
54683;SDS011;40582;53.100;6.686;2022-12-07T01:23:59;10.50;;;2.63;;
54683;SDS011;40582;53.100;6.686;2022-12-07T01:26:25;8.02;;;2.38;;
54683;SDS011;40582;53.100;6.686;2022-12-07T01:28:51;12.38;;;2.78;;
54683;SDS011;40582;53.100;6.686;2022-12-07T01:31:21;10.43;;;2.40;;
54683;SDS011;40582;53.100;6.686;2022-12-07T01:33:49;11.32;;;2.63;;
54683;SDS011;40582;53.100;6.686;2022-12-07T01:36:17;10.27;;;2.75;;
54683;SDS011;40582;53.100;6.686;2022-12-07T01:38:58;10.07;;;2.30;;
54683;SDS011;40582;53.100;6.686;2022-12-07T01:41:30;9.38;;;2.33;;
54683;SDS011;40582;53.100;6.686;2022-12-07T01:44:08;15.10;;;2.42;;
54683;SDS011;40582;53.100;6.686;2022-12-07T01:46:39;11.20;;;1.80;;
54683;SDS011;40582;53.100;6.686;2022-12-07T01:49:07;15.48;;;2.78;;
54683;SDS011;40582;53.100;6.686;2022-12-07T01:51:36;8.07;;;1.85;;
54683;SDS011;40582;53.100;6.686;2022-12-07T01:54:05;10.00;;;1.90;;
54683;SDS011;40582;53.100;6.686;2022-12-07T01:56:32;7.93;;;2.22;;
54683;SDS011;40582;53.100;6.686;2022-12-07T01:58:58;13.20;;;1.85;;
54683;SDS011;40582;53.100;6.686;2022-12-07T02:01:25;8.80;;;1.80;;
54683;SDS011;40582;53.100;6.686;2022-12-07T02:03:51;10.55;;;1.90;;
54683;SDS011;40582;53.100;6.686;2022-12-07T02:06:19;11.60;;;1.80;;
54683;SDS011;40582;53.100;6.686;2022-12-07T02:08:49;9.82;;;1.65;;
54683;SDS011;40582;53.100;6.686;2022-12-07T02:11:15;8.43;;;1.75;;
54683;SDS011;40582;53.100;6.686;2022-12-07T02:13:41;12.75;;;2.08;;
54683;SDS011;40582;53.100;6.686;2022-12-07T02:24:44;17.20;;;1.67;;
54683;SDS011;40582;53.100;6.686;2022-12-07T02:30:00;10.98;;;1.67;;
54683;SDS011;40582;53.100;6.686;2022-12-07T02:37:51;9.23;;;2.13;;
54683;SDS011;40582;53.100;6.686;2022-12-07T02:40:27;16.40;;;2.50;;
54683;SDS011;40582;53.100;6.686;2022-12-07T02:43:00;11.93;;;2.20;;
54683;SDS011;40582;53.100;6.686;2022-12-07T02:45:34;13.52;;;2.33;;
54683;SDS011;40582;53.100;6.686;2022-12-07T02:48:03;16.85;;;2.13;;
54683;SDS011;40582;53.100;6.686;2022-12-07T02:50:31;14.27;;;2.42;;
54683;SDS011;40582;53.100;6.686;2022-12-07T02:52:56;13.98;;;2.22;;
54683;SDS011;40582;53.100;6.686;2022-12-07T02:55:24;12.95;;;2.30;;
54683;SDS011;40582;53.100;6.686;2022-12-07T02:58:01;16.55;;;2.40;;
54683;SDS011;40582;53.100;6.686;2022-12-07T03:00:54;16.27;;;2.47;;
54683;SDS011;40582;53.100;6.686;2022-12-07T03:03:28;13.32;;;2.17;;
54683;SDS011;40582;53.100;6.686;2022-12-07T03:06:04;10.63;;;1.80;;
54683;SDS011;40582;53.100;6.686;2022-12-07T03:08:53;16.35;;;2.45;;
54683;SDS011;40582;53.100;6.686;2022-12-07T03:11:30;11.07;;;2.17;;
54683;SDS011;40582;53.100;6.686;2022-12-07T03:14:05;10.77;;;2.00;;
54683;SDS011;40582;53.100;6.686;2022-12-07T03:17:08;12.35;;;2.05;;
54683;SDS011;40582;53.100;6.686;2022-12-07T03:19:39;13.00;;;2.22;;
54683;SDS011;40582;53.100;6.686;2022-12-07T03:22:07;12.85;;;1.73;;
54683;SDS011;40582;53.100;6.686;2022-12-07T03:24:36;11.95;;;1.77;;
54683;SDS011;40582;53.100;6.686;2022-12-07T03:27:26;12.98;;;2.25;;
54683;SDS011;40582;53.100;6.686;2022-12-07T03:32:27;8.02;;;1.80;;
54683;SDS011;40582;53.100;6.686;2022-12-07T03:35:21;6.90;;;1.67;;
54683;SDS011;40582;53.100;6.686;2022-12-07T03:37:53;11.88;;;2.10;;
54683;SDS011;40582;53.100;6.686;2022-12-07T03:40:42;7.32;;;1.58;;
54683;SDS011;40582;53.100;6.686;2022-12-07T03:43:15;7.70;;;1.58;;
54683;SDS011;40582;53.100;6.686;2022-12-07T03:45:43;9.90;;;1.38;;
54683;SDS011;40582;53.100;6.686;2022-12-07T03:48:16;9.45;;;1.60;;
54683;SDS011;40582;53.100;6.686;2022-12-07T03:50:50;14.52;;;2.13;;
54683;SDS011;40582;53.100;6.686;2022-12-07T03:53:24;11.60;;;2.13;;
54683;SDS011;40582;53.100;6.686;2022-12-07T03:55:59;10.50;;;1.90;;
54683;SDS011;40582;53.100;6.686;2022-12-07T03:58:27;8.32;;;2.08;;
54683;SDS011;40582;53.100;6.686;2022-12-07T04:00:54;8.98;;;1.70;;
54683;SDS011;40582;53.100;6.686;2022-12-07T04:03:20;9.65;;;1.73;;
54683;SDS011;40582;53.100;6.686;2022-12-07T04:05:46;10.90;;;1.80;;
54683;SDS011;40582;53.100;6.686;2022-12-07T04:08:12;10.20;;;1.73;;
54683;SDS011;40582;53.100;6.686;2022-12-07T04:10:38;6.95;;;1.50;;
54683;SDS011;40582;53.100;6.686;2022-12-07T04:13:03;12.23;;;1.73;;
54683;SDS011;40582;53.100;6.686;2022-12-07T04:15:29;8.10;;;1.60;;
54683;SDS011;40582;53.100;6.686;2022-12-07T04:17:55;7.50;;;1.50;;
54683;SDS011;40582;53.100;6.686;2022-12-07T04:20:21;12.50;;;1.55;;
54683;SDS011;40582;53.100;6.686;2022-12-07T04:22:46;12.93;;;1.80;;
54683;SDS011;40582;53.100;6.686;2022-12-07T04:25:12;7.43;;;1.35;;
54683;SDS011;40582;53.100;6.686;2022-12-07T04:27:38;14.57;;;2.60;;
54683;SDS011;40582;53.100;6.686;2022-12-07T04:30:03;12.55;;;1.90;;
54683;SDS011;40582;53.100;6.686;2022-12-07T04:32:29;12.82;;;2.53;;
54683;SDS011;40582;53.100;6.686;2022-12-07T04:34:55;11.30;;;2.00;;
54683;SDS011;40582;53.100;6.686;2022-12-07T04:37:21;11.52;;;1.90;;
54683;SDS011;40582;53.100;6.686;2022-12-07T04:39:48;13.30;;;2.42;;
54683;SDS011;40582;53.100;6.686;2022-12-07T04:42:13;14.10;;;2.55;;
54683;SDS011;40582;53.100;6.686;2022-12-07T04:44:39;15.00;;;2.22;;
54683;SDS011;40582;53.100;6.686;2022-12-07T04:47:04;11.02;;;1.90;;
54683;SDS011;40582;53.100;6.686;2022-12-07T04:49:30;18.85;;;2.15;;
54683;SDS011;40582;53.100;6.686;2022-12-07T04:51:56;17.23;;;2.97;;
54683;SDS011;40582;53.100;6.686;2022-12-07T04:54:21;14.65;;;2.00;;
54683;SDS011;40582;53.100;6.686;2022-12-07T04:56:47;14.02;;;2.20;;
54683;SDS011;40582;53.100;6.686;2022-12-07T04:59:14;14.68;;;2.42;;
54683;SDS011;40582;53.100;6.686;2022-12-07T05:01:40;14.60;;;2.00;;
54683;SDS011;40582;53.100;6.686;2022-12-07T05:04:06;14.65;;;2.58;;
54683;SDS011;40582;53.100;6.686;2022-12-07T05:06:32;14.43;;;2.33;;
54683;SDS011;40582;53.100;6.686;2022-12-07T05:08:57;5.70;;;1.50;;
54683;SDS011;40582;53.100;6.686;2022-12-07T05:11:23;12.70;;;2.40;;
54683;SDS011;40582;53.100;6.686;2022-12-07T05:14:05;15.15;;;2.25;;
54683;SDS011;40582;53.100;6.686;2022-12-07T05:16:33;11.30;;;1.73;;
54683;SDS011;40582;53.100;6.686;2022-12-07T05:18:59;10.93;;;1.98;;
54683;SDS011;40582;53.100;6.686;2022-12-07T05:21:25;6.30;;;1.80;;
54683;SDS011;40582;53.100;6.686;2022-12-07T05:23:51;17.38;;;2.40;;
54683;SDS011;40582;53.100;6.686;2022-12-07T05:26:17;10.52;;;1.80;;
54683;SDS011;40582;53.100;6.686;2022-12-07T05:28:42;13.15;;;2.78;;
54683;SDS011;40582;53.100;6.686;2022-12-07T05:31:08;13.73;;;1.88;;
54683;SDS011;40582;53.100;6.686;2022-12-07T05:33:34;13.95;;;2.53;;
54683;SDS011;40582;53.100;6.686;2022-12-07T05:36:00;12.27;;;2.90;;
54683;SDS011;40582;53.100;6.686;2022-12-07T05:38:31;20.98;;;4.00;;
54683;SDS011;40582;53.100;6.686;2022-12-07T05:40:59;19.73;;;4.30;;
54683;SDS011;40582;53.100;6.686;2022-12-07T05:43:27;20.27;;;3.55;;
54683;SDS011;40582;53.100;6.686;2022-12-07T05:45:53;22.65;;;3.35;;
54683;SDS011;40582;53.100;6.686;2022-12-07T05:48:18;19.65;;;2.97;;
54683;SDS011;40582;53.100;6.686;2022-12-07T05:50:47;15.05;;;2.72;;
54683;SDS011;40582;53.100;6.686;2022-12-07T05:53:13;15.90;;;2.78;;
54683;SDS011;40582;53.100;6.686;2022-12-07T05:55:39;11.93;;;2.50;;
54683;SDS011;40582;53.100;6.686;2022-12-07T05:58:05;18.17;;;2.60;;
54683;SDS011;40582;53.100;6.686;2022-12-07T06:00:49;15.52;;;2.00;;
54683;SDS011;40582;53.100;6.686;2022-12-07T06:03:15;16.63;;;2.45;;
54683;SDS011;40582;53.100;6.686;2022-12-07T06:05:40;18.48;;;3.20;;
54683;SDS011;40582;53.100;6.686;2022-12-07T06:08:06;14.63;;;2.38;;
54683;SDS011;40582;53.100;6.686;2022-12-07T06:10:32;14.10;;;2.40;;
54683;SDS011;40582;53.100;6.686;2022-12-07T06:12:58;18.58;;;2.33;;
54683;SDS011;40582;53.100;6.686;2022-12-07T06:15:24;23.42;;;2.80;;
54683;SDS011;40582;53.100;6.686;2022-12-07T06:17:49;8.55;;;1.95;;
54683;SDS011;40582;53.100;6.686;2022-12-07T06:20:15;17.65;;;2.30;;
54683;SDS011;40582;53.100;6.686;2022-12-07T06:22:41;20.13;;;2.50;;
54683;SDS011;40582;53.100;6.686;2022-12-07T06:25:06;11.45;;;1.85;;
54683;SDS011;40582;53.100;6.686;2022-12-07T06:27:32;21.40;;;2.58;;
54683;SDS011;40582;53.100;6.686;2022-12-07T06:29:58;12.55;;;2.10;;
54683;SDS011;40582;53.100;6.686;2022-12-07T06:32:24;16.77;;;2.85;;
54683;SDS011;40582;53.100;6.686;2022-12-07T06:34:50;16.58;;;2.35;;
54683;SDS011;40582;53.100;6.686;2022-12-07T06:37:16;10.75;;;2.55;;
54683;SDS011;40582;53.100;6.686;2022-12-07T06:39:41;17.95;;;2.75;;
54683;SDS011;40582;53.100;6.686;2022-12-07T06:42:08;13.68;;;3.50;;
54683;SDS011;40582;53.100;6.686;2022-12-07T06:44:33;15.07;;;2.53;;
54683;SDS011;40582;53.100;6.686;2022-12-07T06:46:59;16.67;;;2.40;;
54683;SDS011;40582;53.100;6.686;2022-12-07T06:49:24;17.40;;;2.92;;
54683;SDS011;40582;53.100;6.686;2022-12-07T06:51:51;12.90;;;2.60;;
54683;SDS011;40582;53.100;6.686;2022-12-07T06:54:16;16.08;;;3.05;;
54683;SDS011;40582;53.100;6.686;2022-12-07T06:56:42;14.85;;;2.50;;
54683;SDS011;40582;53.100;6.686;2022-12-07T06:59:08;18.10;;;2.40;;
54683;SDS011;40582;53.100;6.686;2022-12-07T07:01:34;19.77;;;2.45;;
54683;SDS011;40582;53.100;6.686;2022-12-07T07:04:00;12.13;;;2.15;;
54683;SDS011;40582;53.100;6.686;2022-12-07T07:06:26;13.63;;;2.10;;
54683;SDS011;40582;53.100;6.686;2022-12-07T07:08:52;14.95;;;2.35;;
54683;SDS011;40582;53.100;6.686;2022-12-07T07:11:18;12.73;;;2.15;;
54683;SDS011;40582;53.100;6.686;2022-12-07T07:13:44;15.80;;;2.08;;
54683;SDS011;40582;53.100;6.686;2022-12-07T07:16:10;14.70;;;2.25;;
54683;SDS011;40582;53.100;6.686;2022-12-07T07:18:37;14.70;;;2.63;;
54683;SDS011;40582;53.100;6.686;2022-12-07T07:21:03;14.90;;;2.35;;
54683;SDS011;40582;53.100;6.686;2022-12-07T07:23:29;12.52;;;2.95;;
54683;SDS011;40582;53.100;6.686;2022-12-07T07:25:55;13.32;;;2.38;;
54683;SDS011;40582;53.100;6.686;2022-12-07T07:28:20;13.15;;;2.10;;
54683;SDS011;40582;53.100;6.686;2022-12-07T07:30:47;12.48;;;2.20;;
54683;SDS011;40582;53.100;6.686;2022-12-07T07:33:13;15.02;;;2.70;;
54683;SDS011;40582;53.100;6.686;2022-12-07T07:35:39;15.38;;;2.22;;
54683;SDS011;40582;53.100;6.686;2022-12-07T07:38:04;8.65;;;1.80;;
54683;SDS011;40582;53.100;6.686;2022-12-07T07:40:31;14.93;;;2.33;;
54683;SDS011;40582;53.100;6.686;2022-12-07T07:42:57;11.02;;;2.08;;
54683;SDS011;40582;53.100;6.686;2022-12-07T07:45:23;10.48;;;1.95;;
54683;SDS011;40582;53.100;6.686;2022-12-07T07:47:50;6.70;;;1.73;;
54683;SDS011;40582;53.100;6.686;2022-12-07T07:50:16;10.35;;;2.17;;
54683;SDS011;40582;53.100;6.686;2022-12-07T07:52:42;10.70;;;2.38;;
54683;SDS011;40582;53.100;6.686;2022-12-07T07:55:07;8.60;;;1.92;;
54683;SDS011;40582;53.100;6.686;2022-12-07T07:57:34;15.48;;;2.67;;
54683;SDS011;40582;53.100;6.686;2022-12-07T08:00:01;10.75;;;2.10;;
54683;SDS011;40582;53.100;6.686;2022-12-07T08:02:31;7.38;;;1.70;;
54683;SDS011;40582;53.100;6.686;2022-12-07T08:04:56;11.70;;;2.10;;
54683;SDS011;40582;53.100;6.686;2022-12-07T08:07:22;12.50;;;2.20;;
54683;SDS011;40582;53.100;6.686;2022-12-07T08:09:48;12.27;;;2.35;;
54683;SDS011;40582;53.100;6.686;2022-12-07T08:12:13;11.77;;;1.95;;
54683;SDS011;40582;53.100;6.686;2022-12-07T08:14:39;9.93;;;2.30;;
54683;SDS011;40582;53.100;6.686;2022-12-07T08:17:05;11.38;;;2.13;;
54683;SDS011;40582;53.100;6.686;2022-12-07T08:19:30;16.05;;;2.30;;
54683;SDS011;40582;53.100;6.686;2022-12-07T08:21:56;16.55;;;2.75;;
54683;SDS011;40582;53.100;6.686;2022-12-07T08:24:22;13.45;;;3.47;;
54683;SDS011;40582;53.100;6.686;2022-12-07T08:26:50;19.00;;;4.45;;
54683;SDS011;40582;53.100;6.686;2022-12-07T08:29:15;19.90;;;4.60;;
54683;SDS011;40582;53.100;6.686;2022-12-07T08:31:41;18.10;;;2.97;;
54683;SDS011;40582;53.100;6.686;2022-12-07T08:34:07;16.33;;;3.20;;
54683;SDS011;40582;53.100;6.686;2022-12-07T08:36:35;13.90;;;2.70;;
54683;SDS011;40582;53.100;6.686;2022-12-07T08:39:01;17.17;;;2.70;;
54683;SDS011;40582;53.100;6.686;2022-12-07T08:41:27;12.88;;;3.17;;
54683;SDS011;40582;53.100;6.686;2022-12-07T08:43:53;15.85;;;3.40;;
54683;SDS011;40582;53.100;6.686;2022-12-07T08:46:19;23.20;;;3.13;;
54683;SDS011;40582;53.100;6.686;2022-12-07T08:48:58;16.77;;;3.25;;
54683;SDS011;40582;53.100;6.686;2022-12-07T08:51:29;22.45;;;2.97;;
54683;SDS011;40582;53.100;6.686;2022-12-07T08:53:55;17.92;;;2.95;;
54683;SDS011;40582;53.100;6.686;2022-12-07T08:56:23;21.60;;;2.80;;
54683;SDS011;40582;53.100;6.686;2022-12-07T08:58:50;15.65;;;2.65;;
54683;SDS011;40582;53.100;6.686;2022-12-07T09:01:16;18.95;;;2.72;;
54683;SDS011;40582;53.100;6.686;2022-12-07T09:03:42;16.33;;;2.90;;
54683;SDS011;40582;53.100;6.686;2022-12-07T09:06:08;16.42;;;2.72;;
54683;SDS011;40582;53.100;6.686;2022-12-07T09:08:35;16.83;;;2.83;;
54683;SDS011;40582;53.100;6.686;2022-12-07T09:11:04;26.42;;;3.25;;
54683;SDS011;40582;53.100;6.686;2022-12-07T09:13:30;14.77;;;2.80;;
54683;SDS011;40582;53.100;6.686;2022-12-07T09:15:55;18.27;;;2.95;;
54683;SDS011;40582;53.100;6.686;2022-12-07T09:18:22;18.80;;;3.25;;
54683;SDS011;40582;53.100;6.686;2022-12-07T09:20:50;16.13;;;2.80;;
54683;SDS011;40582;53.100;6.686;2022-12-07T09:23:16;18.50;;;2.85;;
54683;SDS011;40582;53.100;6.686;2022-12-07T09:25:42;27.05;;;3.05;;
54683;SDS011;40582;53.100;6.686;2022-12-07T09:28:08;19.92;;;3.05;;
54683;SDS011;40582;53.100;6.686;2022-12-07T09:30:34;16.58;;;3.22;;
54683;SDS011;40582;53.100;6.686;2022-12-07T09:32:59;13.85;;;2.83;;
54683;SDS011;40582;53.100;6.686;2022-12-07T09:35:25;18.90;;;3.45;;
54683;SDS011;40582;53.100;6.686;2022-12-07T09:37:51;11.50;;;2.65;;
54683;SDS011;40582;53.100;6.686;2022-12-07T09:40:17;25.73;;;3.58;;
54683;SDS011;40582;53.100;6.686;2022-12-07T09:42:47;23.38;;;3.10;;
54683;SDS011;40582;53.100;6.686;2022-12-07T09:45:16;17.30;;;3.00;;
54683;SDS011;40582;53.100;6.686;2022-12-07T09:48:03;20.95;;;3.58;;
54683;SDS011;40582;53.100;6.686;2022-12-07T09:50:29;16.13;;;3.75;;
54683;SDS011;40582;53.100;6.686;2022-12-07T09:53:07;14.93;;;2.83;;
54683;SDS011;40582;53.100;6.686;2022-12-07T09:55:38;18.23;;;3.40;;
54683;SDS011;40582;53.100;6.686;2022-12-07T09:58:05;20.20;;;3.30;;
54683;SDS011;40582;53.100;6.686;2022-12-07T10:00:31;21.73;;;3.28;;
54683;SDS011;40582;53.100;6.686;2022-12-07T10:03:01;17.58;;;2.88;;
54683;SDS011;40582;53.100;6.686;2022-12-07T10:05:29;17.08;;;2.75;;
54683;SDS011;40582;53.100;6.686;2022-12-07T10:08:02;16.65;;;3.00;;
54683;SDS011;40582;53.100;6.686;2022-12-07T10:10:32;13.73;;;2.22;;
54683;SDS011;40582;53.100;6.686;2022-12-07T10:13:04;13.60;;;2.67;;
54683;SDS011;40582;53.100;6.686;2022-12-07T10:15:42;12.00;;;2.60;;
54683;SDS011;40582;53.100;6.686;2022-12-07T10:23:42;24.20;;;3.13;;
54683;SDS011;40582;53.100;6.686;2022-12-07T10:26:30;11.40;;;2.60;;
54683;SDS011;40582;53.100;6.686;2022-12-07T10:29:13;14.38;;;2.65;;
54683;SDS011;40582;53.100;6.686;2022-12-07T10:31:58;8.35;;;2.35;;
54683;SDS011;40582;53.100;6.686;2022-12-07T10:34:29;7.80;;;2.20;;
54683;SDS011;40582;53.100;6.686;2022-12-07T10:37:11;10.80;;;1.98;;
54683;SDS011;40582;53.100;6.686;2022-12-07T10:45:06;7.70;;;2.10;;
54683;SDS011;40582;53.100;6.686;2022-12-07T10:47:39;12.50;;;2.67;;
54683;SDS011;40582;53.100;6.686;2022-12-07T10:50:29;11.00;;;2.15;;
54683;SDS011;40582;53.100;6.686;2022-12-07T10:55:56;11.73;;;2.00;;
54683;SDS011;40582;53.100;6.686;2022-12-07T11:10:06;12.68;;;2.42;;
54683;SDS011;40582;53.100;6.686;2022-12-07T11:12:45;15.73;;;2.45;;
54683;SDS011;40582;53.100;6.686;2022-12-07T11:20:29;10.10;;;2.30;;
54683;SDS011;40582;53.100;6.686;2022-12-07T11:25:57;11.52;;;2.40;;
54683;SDS011;40582;53.100;6.686;2022-12-07T11:36:48;5.70;;;1.20;;
54683;SDS011;40582;53.100;6.686;2022-12-07T11:39:33;8.80;;;1.75;;
54683;SDS011;40582;53.100;6.686;2022-12-07T11:42:05;5.95;;;1.23;;
54683;SDS011;40582;53.100;6.686;2022-12-07T11:44:39;11.10;;;1.60;;
54683;SDS011;40582;53.100;6.686;2022-12-07T11:53:18;6.47;;;2.20;;
54683;SDS011;40582;53.100;6.686;2022-12-07T12:01:11;3.70;;;1.50;;
54683;SDS011;40582;53.100;6.686;2022-12-07T12:03:45;5.53;;;1.50;;
54683;SDS011;40582;53.100;6.686;2022-12-07T12:06:13;4.00;;;1.30;;
54683;SDS011;40582;53.100;6.686;2022-12-07T12:11:36;7.63;;;1.55;;
54683;SDS011;40582;53.100;6.686;2022-12-07T12:14:19;9.77;;;1.25;;
54683;SDS011;40582;53.100;6.686;2022-12-07T12:19:38;8.52;;;1.70;;
54683;SDS011;40582;53.100;6.686;2022-12-07T12:22:32;10.98;;;2.20;;
54683;SDS011;40582;53.100;6.686;2022-12-07T12:25:07;9.20;;;1.88;;
54683;SDS011;40582;53.100;6.686;2022-12-07T12:27:47;5.28;;;1.70;;
54683;SDS011;40582;53.100;6.686;2022-12-07T12:30:25;14.65;;;2.20;;
54683;SDS011;40582;53.100;6.686;2022-12-07T12:33:01;9.27;;;2.05;;
54683;SDS011;40582;53.100;6.686;2022-12-07T12:40:54;12.63;;;1.70;;
54683;SDS011;40582;53.100;6.686;2022-12-07T12:48:55;13.18;;;1.80;;
54683;SDS011;40582;53.100;6.686;2022-12-07T12:51:40;14.32;;;2.13;;
54683;SDS011;40582;53.100;6.686;2022-12-07T12:54:12;10.80;;;2.22;;
54683;SDS011;40582;53.100;6.686;2022-12-07T12:56:40;16.75;;;2.00;;
54683;SDS011;40582;53.100;6.686;2022-12-07T13:01:46;8.68;;;1.95;;
54683;SDS011;40582;53.100;6.686;2022-12-07T13:04:17;9.20;;;1.85;;
54683;SDS011;40582;53.100;6.686;2022-12-07T13:07:10;13.13;;;1.95;;
54683;SDS011;40582;53.100;6.686;2022-12-07T13:09:38;5.80;;;1.50;;
54683;SDS011;40582;53.100;6.686;2022-12-07T13:12:13;18.05;;;2.22;;
54683;SDS011;40582;53.100;6.686;2022-12-07T13:14:52;10.88;;;2.28;;
54683;SDS011;40582;53.100;6.686;2022-12-07T13:20:01;17.27;;;2.70;;
54683;SDS011;40582;53.100;6.686;2022-12-07T13:24:57;6.22;;;1.20;;
54683;SDS011;40582;53.100;6.686;2022-12-07T13:27:25;6.30;;;1.30;;
54683;SDS011;40582;53.100;6.686;2022-12-07T13:29:51;8.82;;;1.45;;
54683;SDS011;40582;53.100;6.686;2022-12-07T13:32:23;6.07;;;1.60;;
54683;SDS011;40582;53.100;6.686;2022-12-07T13:34:50;7.30;;;1.63;;
54683;SDS011;40582;53.100;6.686;2022-12-07T13:39:52;5.23;;;1.00;;
54683;SDS011;40582;53.100;6.686;2022-12-07T13:42:19;5.05;;;1.33;;
54683;SDS011;40582;53.100;6.686;2022-12-07T13:44:51;3.97;;;1.48;;
54683;SDS011;40582;53.100;6.686;2022-12-07T13:47:41;6.53;;;1.17;;
54683;SDS011;40582;53.100;6.686;2022-12-07T13:50:26;9.00;;;1.60;;
54683;SDS011;40582;53.100;6.686;2022-12-07T13:52:57;4.78;;;1.00;;
54683;SDS011;40582;53.100;6.686;2022-12-07T13:55:24;5.10;;;1.35;;
54683;SDS011;40582;53.100;6.686;2022-12-07T13:57:52;3.22;;;1.00;;
54683;SDS011;40582;53.100;6.686;2022-12-07T14:00:20;7.57;;;1.20;;
54683;SDS011;40582;53.100;6.686;2022-12-07T14:02:58;4.57;;;1.00;;
54683;SDS011;40582;53.100;6.686;2022-12-07T14:05:33;4.28;;;1.30;;
54683;SDS011;40582;53.100;6.686;2022-12-07T14:10:31;7.60;;;1.67;;
54683;SDS011;40582;53.100;6.686;2022-12-07T14:13:32;4.90;;;1.55;;
54683;SDS011;40582;53.100;6.686;2022-12-07T14:16:26;5.00;;;1.35;;
54683;SDS011;40582;53.100;6.686;2022-12-07T14:18:59;8.05;;;1.30;;
54683;SDS011;40582;53.100;6.686;2022-12-07T14:21:27;9.93;;;2.13;;
54683;SDS011;40582;53.100;6.686;2022-12-07T14:26:44;12.05;;;1.98;;
54683;SDS011;40582;53.100;6.686;2022-12-07T14:31:47;6.75;;;2.33;;
54683;SDS011;40582;53.100;6.686;2022-12-07T14:34:12;7.35;;;2.33;;
54683;SDS011;40582;53.100;6.686;2022-12-07T14:36:38;5.45;;;2.63;;
54683;SDS011;40582;53.100;6.686;2022-12-07T14:39:04;8.23;;;2.28;;
54683;SDS011;40582;53.100;6.686;2022-12-07T14:41:30;10.00;;;2.67;;
54683;SDS011;40582;53.100;6.686;2022-12-07T14:44:14;8.15;;;2.15;;
54683;SDS011;40582;53.100;6.686;2022-12-07T14:46:39;5.20;;;1.92;;
54683;SDS011;40582;53.100;6.686;2022-12-07T14:49:05;11.10;;;2.45;;
54683;SDS011;40582;53.100;6.686;2022-12-07T14:51:31;7.15;;;1.75;;
54683;SDS011;40582;53.100;6.686;2022-12-07T14:53:58;9.10;;;2.00;;
54683;SDS011;40582;53.100;6.686;2022-12-07T14:56:24;7.53;;;2.22;;
54683;SDS011;40582;53.100;6.686;2022-12-07T14:58:50;10.75;;;1.67;;
54683;SDS011;40582;53.100;6.686;2022-12-07T15:01:16;8.77;;;2.08;;
54683;SDS011;40582;53.100;6.686;2022-12-07T15:03:42;9.35;;;2.08;;
54683;SDS011;40582;53.100;6.686;2022-12-07T15:06:10;6.60;;;2.25;;
54683;SDS011;40582;53.100;6.686;2022-12-07T15:08:39;12.55;;;2.30;;
54683;SDS011;40582;53.100;6.686;2022-12-07T15:11:04;9.68;;;1.55;;
54683;SDS011;40582;53.100;6.686;2022-12-07T15:13:30;11.13;;;1.90;;
54683;SDS011;40582;53.100;6.686;2022-12-07T15:16:16;9.30;;;1.58;;
54683;SDS011;40582;53.100;6.686;2022-12-07T15:18:45;9.35;;;1.75;;
54683;SDS011;40582;53.100;6.686;2022-12-07T15:21:14;8.07;;;1.58;;
54683;SDS011;40582;53.100;6.686;2022-12-07T15:23:40;13.15;;;2.25;;
54683;SDS011;40582;53.100;6.686;2022-12-07T15:26:07;11.27;;;2.00;;
54683;SDS011;40582;53.100;6.686;2022-12-07T15:28:34;6.60;;;1.50;;
54683;SDS011;40582;53.100;6.686;2022-12-07T15:31:00;8.80;;;1.80;;
54683;SDS011;40582;53.100;6.686;2022-12-07T15:33:26;6.60;;;1.75;;
54683;SDS011;40582;53.100;6.686;2022-12-07T15:35:51;4.82;;;1.25;;
54683;SDS011;40582;53.100;6.686;2022-12-07T15:38:17;7.70;;;1.67;;
54683;SDS011;40582;53.100;6.686;2022-12-07T15:40:46;9.43;;;1.95;;
54683;SDS011;40582;53.100;6.686;2022-12-07T15:43:12;7.15;;;1.83;;
54683;SDS011;40582;53.100;6.686;2022-12-07T15:45:56;7.25;;;1.80;;
54683;SDS011;40582;53.100;6.686;2022-12-07T15:48:22;5.32;;;2.20;;
54683;SDS011;40582;53.100;6.686;2022-12-07T15:50:48;8.77;;;2.30;;
54683;SDS011;40582;53.100;6.686;2022-12-07T15:53:13;13.77;;;2.40;;
54683;SDS011;40582;53.100;6.686;2022-12-07T15:55:39;5.25;;;2.35;;
54683;SDS011;40582;53.100;6.686;2022-12-07T15:58:05;7.63;;;2.47;;
54683;SDS011;40582;53.100;6.686;2022-12-07T16:00:31;5.10;;;2.20;;
54683;SDS011;40582;53.100;6.686;2022-12-07T16:02:57;7.75;;;2.30;;
54683;SDS011;40582;53.100;6.686;2022-12-07T16:05:24;7.63;;;2.47;;
54683;SDS011;40582;53.100;6.686;2022-12-07T16:07:50;8.23;;;2.95;;
54683;SDS011;40582;53.100;6.686;2022-12-07T16:10:16;7.78;;;3.60;;
54683;SDS011;40582;53.100;6.686;2022-12-07T16:12:41;9.80;;;2.92;;
54683;SDS011;40582;53.100;6.686;2022-12-07T16:15:07;10.05;;;3.70;;
54683;SDS011;40582;53.100;6.686;2022-12-07T16:17:33;6.43;;;2.95;;
54683;SDS011;40582;53.100;6.686;2022-12-07T16:19:59;8.20;;;2.75;;
54683;SDS011;40582;53.100;6.686;2022-12-07T16:22:25;12.40;;;4.20;;
54683;SDS011;40582;53.100;6.686;2022-12-07T16:24:50;10.02;;;3.60;;
54683;SDS011;40582;53.100;6.686;2022-12-07T16:27:16;12.18;;;3.17;;
54683;SDS011;40582;53.100;6.686;2022-12-07T16:29:42;8.27;;;2.70;;
54683;SDS011;40582;53.100;6.686;2022-12-07T16:32:07;7.30;;;2.60;;
54683;SDS011;40582;53.100;6.686;2022-12-07T16:34:33;6.65;;;3.05;;
54683;SDS011;40582;53.100;6.686;2022-12-07T16:36:59;10.15;;;3.00;;